sensor_id;sensor_type;location;lat;lon;timestamp;P1;durP1;ratioP1;P2;durP2;ratioP2
10957;SDS011;5531;42.570;23.676;2022-09-09T00:01:01;4.22;;;3.85;;
10957;SDS011;5531;42.570;23.676;2022-09-09T00:03:39;4.10;;;3.67;;
10957;SDS011;5531;42.570;23.676;2022-09-09T00:06:15;4.28;;;3.88;;
10957;SDS011;5531;42.570;23.676;2022-09-09T00:08:54;4.20;;;3.80;;
10957;SDS011;5531;42.570;23.676;2022-09-09T00:11:35;4.43;;;4.03;;
10957;SDS011;5531;42.570;23.676;2022-09-09T00:14:12;4.28;;;3.88;;
10957;SDS011;5531;42.570;23.676;2022-09-09T00:16:49;4.18;;;3.78;;
10957;SDS011;5531;42.570;23.676;2022-09-09T00:19:24;4.03;;;3.72;;
10957;SDS011;5531;42.570;23.676;2022-09-09T00:22:05;4.03;;;3.72;;
10957;SDS011;5531;42.570;23.676;2022-09-09T00:24:43;4.35;;;3.83;;
10957;SDS011;5531;42.570;23.676;2022-09-09T00:27:19;4.53;;;4.13;;
10957;SDS011;5531;42.570;23.676;2022-09-09T00:29:56;4.13;;;3.55;;
10957;SDS011;5531;42.570;23.676;2022-09-09T00:32:30;4.35;;;3.97;;
10957;SDS011;5531;42.570;23.676;2022-09-09T00:35:03;4.10;;;3.80;;
10957;SDS011;5531;42.570;23.676;2022-09-09T00:37:43;4.70;;;4.30;;
10957;SDS011;5531;42.570;23.676;2022-09-09T00:40:18;4.13;;;3.72;;
10957;SDS011;5531;42.570;23.676;2022-09-09T00:42:58;4.50;;;4.10;;
10957;SDS011;5531;42.570;23.676;2022-09-09T00:45:52;4.22;;;3.85;;
10957;SDS011;5531;42.570;23.676;2022-09-09T00:48:36;4.03;;;3.72;;
10957;SDS011;5531;42.570;23.676;2022-09-09T00:51:15;4.05;;;3.65;;
10957;SDS011;5531;42.570;23.676;2022-09-09T00:56:48;4.45;;;4.05;;
10957;SDS011;5531;42.570;23.676;2022-09-09T00:59:32;4.20;;;3.80;;
10957;SDS011;5531;42.570;23.676;2022-09-09T01:02:12;4.50;;;3.60;;
10957;SDS011;5531;42.570;23.676;2022-09-09T01:04:47;4.30;;;3.90;;
10957;SDS011;5531;42.570;23.676;2022-09-09T01:07:16;4.60;;;3.72;;
10957;SDS011;5531;42.570;23.676;2022-09-09T01:09:51;4.35;;;3.47;;
10957;SDS011;5531;42.570;23.676;2022-09-09T01:12:24;4.00;;;3.70;;
10957;SDS011;5531;42.570;23.676;2022-09-09T01:15:07;3.65;;;3.33;;
10957;SDS011;5531;42.570;23.676;2022-09-09T01:17:44;4.10;;;3.78;;
10957;SDS011;5531;42.570;23.676;2022-09-09T01:20:19;3.85;;;3.42;;
10957;SDS011;5531;42.570;23.676;2022-09-09T01:23:04;4.20;;;3.80;;
10957;SDS011;5531;42.570;23.676;2022-09-09T01:26:08;3.95;;;3.55;;
10957;SDS011;5531;42.570;23.676;2022-09-09T01:28:43;4.28;;;3.88;;
10957;SDS011;5531;42.570;23.676;2022-09-09T01:31:17;4.28;;;3.85;;
10957;SDS011;5531;42.570;23.676;2022-09-09T01:33:48;4.70;;;4.30;;
10957;SDS011;5531;42.570;23.676;2022-09-09T01:36:19;5.03;;;4.63;;
10957;SDS011;5531;42.570;23.676;2022-09-09T01:38:54;4.90;;;4.40;;
10957;SDS011;5531;42.570;23.676;2022-09-09T01:41:26;4.97;;;4.40;;
10957;SDS011;5531;42.570;23.676;2022-09-09T01:43:56;5.10;;;4.70;;
10957;SDS011;5531;42.570;23.676;2022-09-09T01:46:25;4.90;;;4.50;;
10957;SDS011;5531;42.570;23.676;2022-09-09T01:48:56;5.43;;;4.93;;
10957;SDS011;5531;42.570;23.676;2022-09-09T01:51:27;5.22;;;4.80;;
10957;SDS011;5531;42.570;23.676;2022-09-09T01:53:56;5.50;;;5.00;;
10957;SDS011;5531;42.570;23.676;2022-09-09T01:56:32;5.85;;;5.35;;
10957;SDS011;5531;42.570;23.676;2022-09-09T01:59:11;5.78;;;5.20;;
10957;SDS011;5531;42.570;23.676;2022-09-09T02:01:56;5.38;;;4.88;;
10957;SDS011;5531;42.570;23.676;2022-09-09T02:04:36;5.70;;;5.20;;
10957;SDS011;5531;42.570;23.676;2022-09-09T02:07:11;6.78;;;5.68;;
10957;SDS011;5531;42.570;23.676;2022-09-09T02:09:50;6.40;;;5.80;;
10957;SDS011;5531;42.570;23.676;2022-09-09T02:12:28;6.13;;;5.63;;
10957;SDS011;5531;42.570;23.676;2022-09-09T02:15:00;6.05;;;5.47;;
10957;SDS011;5531;42.570;23.676;2022-09-09T02:17:34;6.30;;;5.70;;
10957;SDS011;5531;42.570;23.676;2022-09-09T02:20:07;6.10;;;5.38;;
10957;SDS011;5531;42.570;23.676;2022-09-09T02:22:40;6.18;;;5.57;;
10957;SDS011;5531;42.570;23.676;2022-09-09T02:25:13;6.97;;;6.28;;
10957;SDS011;5531;42.570;23.676;2022-09-09T02:27:48;6.03;;;5.53;;
10957;SDS011;5531;42.570;23.676;2022-09-09T02:30:19;5.75;;;5.25;;
10957;SDS011;5531;42.570;23.676;2022-09-09T02:32:48;5.03;;;4.55;;
10957;SDS011;5531;42.570;23.676;2022-09-09T02:35:23;5.65;;;5.10;;
10957;SDS011;5531;42.570;23.676;2022-09-09T02:37:53;5.70;;;5.20;;
10957;SDS011;5531;42.570;23.676;2022-09-09T02:40:26;5.80;;;5.30;;
10957;SDS011;5531;42.570;23.676;2022-09-09T02:42:58;6.05;;;4.78;;
10957;SDS011;5531;42.570;23.676;2022-09-09T02:45:31;5.30;;;4.80;;
10957;SDS011;5531;42.570;23.676;2022-09-09T02:48:09;5.20;;;4.80;;
10957;SDS011;5531;42.570;23.676;2022-09-09T02:50:50;6.45;;;5.82;;
10957;SDS011;5531;42.570;23.676;2022-09-09T02:53:25;6.13;;;5.63;;
10957;SDS011;5531;42.570;23.676;2022-09-09T02:56:02;5.72;;;5.22;;
10957;SDS011;5531;42.570;23.676;2022-09-09T02:58:40;5.68;;;5.18;;
10957;SDS011;5531;42.570;23.676;2022-09-09T03:01:09;5.40;;;5.00;;
10957;SDS011;5531;42.570;23.676;2022-09-09T03:03:39;5.63;;;5.00;;
10957;SDS011;5531;42.570;23.676;2022-09-09T03:06:09;5.30;;;4.80;;
10957;SDS011;5531;42.570;23.676;2022-09-09T03:08:39;5.22;;;4.75;;
10957;SDS011;5531;42.570;23.676;2022-09-09T03:11:08;4.90;;;4.50;;
10957;SDS011;5531;42.570;23.676;2022-09-09T03:13:42;5.10;;;4.70;;
10957;SDS011;5531;42.570;23.676;2022-09-09T03:16:11;49.95;;;7.70;;
10957;SDS011;5531;42.570;23.676;2022-09-09T03:18:40;6.38;;;5.00;;
10957;SDS011;5531;42.570;23.676;2022-09-09T03:21:10;4.65;;;4.25;;
10957;SDS011;5531;42.570;23.676;2022-09-09T03:23:39;4.30;;;3.90;;
10957;SDS011;5531;42.570;23.676;2022-09-09T03:26:10;3.90;;;3.60;;
10957;SDS011;5531;42.570;23.676;2022-09-09T03:28:43;8.65;;;3.42;;
10957;SDS011;5531;42.570;23.676;2022-09-09T03:31:12;4.40;;;3.10;;
10957;SDS011;5531;42.570;23.676;2022-09-09T03:33:41;3.22;;;2.80;;
10957;SDS011;5531;42.570;23.676;2022-09-09T03:36:10;3.00;;;2.70;;
10957;SDS011;5531;42.570;23.676;2022-09-09T03:38:39;2.70;;;2.20;;
10957;SDS011;5531;42.570;23.676;2022-09-09T03:41:08;2.97;;;2.65;;
10957;SDS011;5531;42.570;23.676;2022-09-09T03:43:38;2.63;;;2.40;;
10957;SDS011;5531;42.570;23.676;2022-09-09T03:46:09;2.72;;;2.42;;
10957;SDS011;5531;42.570;23.676;2022-09-09T03:48:38;3.97;;;2.40;;
10957;SDS011;5531;42.570;23.676;2022-09-09T03:51:07;2.67;;;2.47;;
10957;SDS011;5531;42.570;23.676;2022-09-09T03:53:37;2.40;;;2.20;;
10957;SDS011;5531;42.570;23.676;2022-09-09T03:56:06;2.90;;;2.60;;
10957;SDS011;5531;42.570;23.676;2022-09-09T03:58:35;4.40;;;2.58;;
10957;SDS011;5531;42.570;23.676;2022-09-09T04:01:06;2.60;;;2.35;;
10957;SDS011;5531;42.570;23.676;2022-09-09T04:03:40;2.70;;;2.50;;
10957;SDS011;5531;42.570;23.676;2022-09-09T04:06:10;3.72;;;2.35;;
10957;SDS011;5531;42.570;23.676;2022-09-09T04:08:41;2.47;;;2.22;;
10957;SDS011;5531;42.570;23.676;2022-09-09T04:11:10;2.40;;;2.20;;
10957;SDS011;5531;42.570;23.676;2022-09-09T04:13:39;2.42;;;2.20;;
10957;SDS011;5531;42.570;23.676;2022-09-09T04:16:12;2.50;;;2.30;;
10957;SDS011;5531;42.570;23.676;2022-09-09T04:18:42;4.50;;;2.30;;
10957;SDS011;5531;42.570;23.676;2022-09-09T04:21:11;2.58;;;2.38;;
10957;SDS011;5531;42.570;23.676;2022-09-09T04:23:41;3.15;;;2.88;;
10957;SDS011;5531;42.570;23.676;2022-09-09T04:26:13;3.08;;;2.78;;
10957;SDS011;5531;42.570;23.676;2022-09-09T04:28:42;2.95;;;2.67;;
10957;SDS011;5531;42.570;23.676;2022-09-09T04:31:16;3.00;;;2.80;;
10957;SDS011;5531;42.570;23.676;2022-09-09T04:33:48;2.85;;;2.63;;
10957;SDS011;5531;42.570;23.676;2022-09-09T04:36:18;3.20;;;2.90;;
10957;SDS011;5531;42.570;23.676;2022-09-09T04:38:47;2.65;;;2.45;;
10957;SDS011;5531;42.570;23.676;2022-09-09T04:41:16;3.03;;;2.80;;
10957;SDS011;5531;42.570;23.676;2022-09-09T04:43:46;2.50;;;2.30;;
10957;SDS011;5531;42.570;23.676;2022-09-09T04:46:18;3.05;;;2.70;;
10957;SDS011;5531;42.570;23.676;2022-09-09T04:48:48;4.50;;;2.65;;
10957;SDS011;5531;42.570;23.676;2022-09-09T04:51:18;3.10;;;2.80;;
10957;SDS011;5531;42.570;23.676;2022-09-09T04:53:47;3.33;;;2.60;;
10957;SDS011;5531;42.570;23.676;2022-09-09T04:56:17;2.80;;;2.50;;
10957;SDS011;5531;42.570;23.676;2022-09-09T04:58:46;2.42;;;2.22;;
10957;SDS011;5531;42.570;23.676;2022-09-09T05:01:18;2.67;;;2.28;;
10957;SDS011;5531;42.570;23.676;2022-09-09T05:03:50;2.53;;;2.30;;
10957;SDS011;5531;42.570;23.676;2022-09-09T05:06:20;2.97;;;2.50;;
10957;SDS011;5531;42.570;23.676;2022-09-09T05:08:50;2.47;;;2.28;;
10957;SDS011;5531;42.570;23.676;2022-09-09T05:11:21;2.65;;;2.38;;
10957;SDS011;5531;42.570;23.676;2022-09-09T05:13:52;2.40;;;2.20;;
10957;SDS011;5531;42.570;23.676;2022-09-09T05:16:24;2.40;;;2.13;;
10957;SDS011;5531;42.570;23.676;2022-09-09T05:18:53;2.65;;;2.35;;
10957;SDS011;5531;42.570;23.676;2022-09-09T05:21:23;3.35;;;2.53;;
10957;SDS011;5531;42.570;23.676;2022-09-09T05:23:53;2.50;;;2.28;;
10957;SDS011;5531;42.570;23.676;2022-09-09T05:26:23;3.15;;;2.50;;
10957;SDS011;5531;42.570;23.676;2022-09-09T05:28:52;2.45;;;2.25;;
10957;SDS011;5531;42.570;23.676;2022-09-09T05:31:24;2.58;;;2.30;;
10957;SDS011;5531;42.570;23.676;2022-09-09T05:33:54;2.17;;;1.95;;
10957;SDS011;5531;42.570;23.676;2022-09-09T05:36:24;2.70;;;2.50;;
10957;SDS011;5531;42.570;23.676;2022-09-09T05:38:53;2.53;;;2.33;;
10957;SDS011;5531;42.570;23.676;2022-09-09T05:41:22;2.15;;;1.90;;
10957;SDS011;5531;42.570;23.676;2022-09-09T05:43:51;2.75;;;2.47;;
10957;SDS011;5531;42.570;23.676;2022-09-09T05:46:21;2.08;;;1.90;;
10957;SDS011;5531;42.570;23.676;2022-09-09T05:48:53;2.35;;;2.05;;
10957;SDS011;5531;42.570;23.676;2022-09-09T05:51:24;2.35;;;2.15;;
10957;SDS011;5531;42.570;23.676;2022-09-09T05:53:54;2.33;;;2.13;;
10957;SDS011;5531;42.570;23.676;2022-09-09T05:56:27;2.80;;;2.40;;
10957;SDS011;5531;42.570;23.676;2022-09-09T05:59:08;2.72;;;2.25;;
10957;SDS011;5531;42.570;23.676;2022-09-09T06:01:40;2.45;;;2.25;;
10957;SDS011;5531;42.570;23.676;2022-09-09T06:04:10;2.33;;;2.10;;
10957;SDS011;5531;42.570;23.676;2022-09-09T06:06:39;2.40;;;2.20;;
10957;SDS011;5531;42.570;23.676;2022-09-09T06:09:09;4.00;;;2.40;;
10957;SDS011;5531;42.570;23.676;2022-09-09T06:11:39;2.80;;;2.40;;
10957;SDS011;5531;42.570;23.676;2022-09-09T06:14:08;2.05;;;1.85;;
10957;SDS011;5531;42.570;23.676;2022-09-09T06:16:40;2.30;;;2.10;;
10957;SDS011;5531;42.570;23.676;2022-09-09T06:19:10;2.80;;;2.30;;
10957;SDS011;5531;42.570;23.676;2022-09-09T06:21:40;2.42;;;2.22;;
10957;SDS011;5531;42.570;23.676;2022-09-09T06:24:09;2.40;;;2.20;;
10957;SDS011;5531;42.570;23.676;2022-09-09T06:26:42;2.55;;;2.15;;
10957;SDS011;5531;42.570;23.676;2022-09-09T06:29:11;2.60;;;2.10;;
10957;SDS011;5531;42.570;23.676;2022-09-09T06:31:43;2.40;;;2.10;;
10957;SDS011;5531;42.570;23.676;2022-09-09T06:34:12;2.10;;;1.90;;
10957;SDS011;5531;42.570;23.676;2022-09-09T06:36:41;2.05;;;1.85;;
10957;SDS011;5531;42.570;23.676;2022-09-09T06:39:12;2.78;;;2.00;;
10957;SDS011;5531;42.570;23.676;2022-09-09T06:41:41;2.17;;;1.98;;
10957;SDS011;5531;42.570;23.676;2022-09-09T06:44:11;1.77;;;1.67;;
10957;SDS011;5531;42.570;23.676;2022-09-09T06:46:43;2.05;;;1.85;;
10957;SDS011;5531;42.570;23.676;2022-09-09T06:49:13;2.03;;;1.83;;
10957;SDS011;5531;42.570;23.676;2022-09-09T06:51:42;1.90;;;1.75;;
10957;SDS011;5531;42.570;23.676;2022-09-09T06:54:12;1.80;;;1.70;;
10957;SDS011;5531;42.570;23.676;2022-09-09T06:56:41;1.90;;;1.70;;
10957;SDS011;5531;42.570;23.676;2022-09-09T06:59:10;2.63;;;1.80;;
10957;SDS011;5531;42.570;23.676;2022-09-09T07:01:45;1.80;;;1.70;;
10957;SDS011;5531;42.570;23.676;2022-09-09T07:04:16;1.70;;;1.60;;
10957;SDS011;5531;42.570;23.676;2022-09-09T07:06:45;2.33;;;1.80;;
10957;SDS011;5531;42.570;23.676;2022-09-09T07:09:15;1.90;;;1.80;;
10957;SDS011;5531;42.570;23.676;2022-09-09T07:11:47;2.08;;;1.65;;
10957;SDS011;5531;42.570;23.676;2022-09-09T07:14:18;1.77;;;1.67;;
10957;SDS011;5531;42.570;23.676;2022-09-09T07:16:50;1.70;;;1.60;;
10957;SDS011;5531;42.570;23.676;2022-09-09T07:19:19;2.03;;;1.65;;
10957;SDS011;5531;42.570;23.676;2022-09-09T07:21:48;1.60;;;1.50;;
10957;SDS011;5531;42.570;23.676;2022-09-09T07:24:18;1.48;;;1.38;;
10957;SDS011;5531;42.570;23.676;2022-09-09T07:26:47;1.73;;;1.63;;
10957;SDS011;5531;42.570;23.676;2022-09-09T07:29:17;2.13;;;1.90;;
10957;SDS011;5531;42.570;23.676;2022-09-09T07:31:46;2.00;;;1.90;;
10957;SDS011;5531;42.570;23.676;2022-09-09T07:34:18;2.13;;;1.70;;
10957;SDS011;5531;42.570;23.676;2022-09-09T07:36:47;2.10;;;1.80;;
10957;SDS011;5531;42.570;23.676;2022-09-09T07:39:16;1.95;;;1.70;;
10957;SDS011;5531;42.570;23.676;2022-09-09T07:41:46;2.30;;;2.10;;
10957;SDS011;5531;42.570;23.676;2022-09-09T07:44:17;1.98;;;1.77;;
10957;SDS011;5531;42.570;23.676;2022-09-09T07:46:48;1.80;;;1.70;;
10957;SDS011;5531;42.570;23.676;2022-09-09T07:49:20;2.08;;;1.77;;
10957;SDS011;5531;42.570;23.676;2022-09-09T07:51:49;2.22;;;1.90;;
10957;SDS011;5531;42.570;23.676;2022-09-09T07:54:19;2.13;;;1.92;;
10957;SDS011;5531;42.570;23.676;2022-09-09T07:56:49;2.25;;;2.03;;
10957;SDS011;5531;42.570;23.676;2022-09-09T07:59:18;2.78;;;2.10;;
10957;SDS011;5531;42.570;23.676;2022-09-09T08:01:49;2.70;;;2.03;;
10957;SDS011;5531;42.570;23.676;2022-09-09T08:04:23;2.10;;;1.90;;
10957;SDS011;5531;42.570;23.676;2022-09-09T08:06:54;2.05;;;1.70;;
10957;SDS011;5531;42.570;23.676;2022-09-09T08:09:27;2.75;;;2.03;;
10957;SDS011;5531;42.570;23.676;2022-09-09T08:11:58;2.10;;;1.90;;
10957;SDS011;5531;42.570;23.676;2022-09-09T08:14:30;3.17;;;2.13;;
10957;SDS011;5531;42.570;23.676;2022-09-09T08:16:59;2.13;;;1.90;;
10957;SDS011;5531;42.570;23.676;2022-09-09T08:19:31;2.28;;;2.08;;
10957;SDS011;5531;42.570;23.676;2022-09-09T08:22:01;1.75;;;1.65;;
10957;SDS011;5531;42.570;23.676;2022-09-09T08:24:31;2.38;;;2.10;;
10957;SDS011;5531;42.570;23.676;2022-09-09T08:27:00;2.15;;;1.95;;
10957;SDS011;5531;42.570;23.676;2022-09-09T08:29:29;2.50;;;1.80;;
10957;SDS011;5531;42.570;23.676;2022-09-09T08:31:58;2.20;;;2.00;;
10957;SDS011;5531;42.570;23.676;2022-09-09T08:34:27;2.35;;;2.13;;
10957;SDS011;5531;42.570;23.676;2022-09-09T08:36:59;2.20;;;2.00;;
10957;SDS011;5531;42.570;23.676;2022-09-09T08:39:28;2.55;;;2.35;;
10957;SDS011;5531;42.570;23.676;2022-09-09T08:42:02;2.20;;;2.00;;
10957;SDS011;5531;42.570;23.676;2022-09-09T08:45:00;2.95;;;2.65;;
10957;SDS011;5531;42.570;23.676;2022-09-09T08:47:39;3.50;;;2.88;;
10957;SDS011;5531;42.570;23.676;2022-09-09T08:50:19;2.40;;;2.20;;
10957;SDS011;5531;42.570;23.676;2022-09-09T08:52:58;2.40;;;2.10;;
10957;SDS011;5531;42.570;23.676;2022-09-09T08:55:35;1.92;;;1.83;;
10957;SDS011;5531;42.570;23.676;2022-09-09T08:58:11;2.05;;;1.80;;
10957;SDS011;5531;42.570;23.676;2022-09-09T09:03:40;2.42;;;2.05;;
10957;SDS011;5531;42.570;23.676;2022-09-09T09:06:24;2.10;;;1.88;;
10957;SDS011;5531;42.570;23.676;2022-09-09T09:09:08;2.20;;;2.00;;
10957;SDS011;5531;42.570;23.676;2022-09-09T09:11:47;2.08;;;1.90;;
10957;SDS011;5531;42.570;23.676;2022-09-09T09:14:19;2.85;;;2.10;;
10957;SDS011;5531;42.570;23.676;2022-09-09T09:16:51;2.20;;;2.00;;
10957;SDS011;5531;42.570;23.676;2022-09-09T09:19:24;2.17;;;2.00;;
10957;SDS011;5531;42.570;23.676;2022-09-09T09:21:57;2.00;;;1.90;;
10957;SDS011;5531;42.570;23.676;2022-09-09T09:24:36;2.20;;;2.00;;
10957;SDS011;5531;42.570;23.676;2022-09-09T09:27:15;2.13;;;2.00;;
10957;SDS011;5531;42.570;23.676;2022-09-09T09:29:47;2.00;;;1.80;;
10957;SDS011;5531;42.570;23.676;2022-09-09T09:32:18;2.30;;;2.10;;
10957;SDS011;5531;42.570;23.676;2022-09-09T09:34:50;2.10;;;1.90;;
10957;SDS011;5531;42.570;23.676;2022-09-09T09:37:25;2.20;;;2.00;;
10957;SDS011;5531;42.570;23.676;2022-09-09T09:40:06;2.45;;;1.98;;
10957;SDS011;5531;42.570;23.676;2022-09-09T09:42:37;2.15;;;1.95;;
10957;SDS011;5531;42.570;23.676;2022-09-09T09:45:17;2.00;;;1.90;;
10957;SDS011;5531;42.570;23.676;2022-09-09T09:48:00;2.47;;;2.22;;
10957;SDS011;5531;42.570;23.676;2022-09-09T09:50:31;2.20;;;1.90;;
10957;SDS011;5531;42.570;23.676;2022-09-09T09:53:02;2.20;;;2.00;;
10957;SDS011;5531;42.570;23.676;2022-09-09T09:55:36;2.10;;;1.90;;
10957;SDS011;5531;42.570;23.676;2022-09-09T09:58:15;2.05;;;1.85;;
10957;SDS011;5531;42.570;23.676;2022-09-09T10:00:47;2.20;;;2.00;;
10957;SDS011;5531;42.570;23.676;2022-09-09T10:03:21;2.28;;;2.08;;
10957;SDS011;5531;42.570;23.676;2022-09-09T10:05:52;2.30;;;2.10;;
10957;SDS011;5531;42.570;23.676;2022-09-09T10:08:23;2.15;;;1.95;;
10957;SDS011;5531;42.570;23.676;2022-09-09T10:11:02;2.50;;;2.00;;
10957;SDS011;5531;42.570;23.676;2022-09-09T10:13:51;2.22;;;2.03;;
10957;SDS011;5531;42.570;23.676;2022-09-09T10:16:32;2.83;;;2.08;;
10957;SDS011;5531;42.570;23.676;2022-09-09T10:19:10;2.10;;;1.88;;
10957;SDS011;5531;42.570;23.676;2022-09-09T10:21:56;2.25;;;2.05;;
10957;SDS011;5531;42.570;23.676;2022-09-09T10:27:39;2.10;;;1.88;;
10957;SDS011;5531;42.570;23.676;2022-09-09T10:30:16;2.20;;;1.75;;
10957;SDS011;5531;42.570;23.676;2022-09-09T10:32:48;2.47;;;1.95;;
10957;SDS011;5531;42.570;23.676;2022-09-09T10:35:27;1.95;;;1.77;;
10957;SDS011;5531;42.570;23.676;2022-09-09T10:40:59;2.25;;;2.05;;
10957;SDS011;5531;42.570;23.676;2022-09-09T10:43:46;2.35;;;1.98;;
10957;SDS011;5531;42.570;23.676;2022-09-09T10:46:31;3.22;;;1.95;;
10957;SDS011;5531;42.570;23.676;2022-09-09T10:49:13;2.20;;;2.00;;
10957;SDS011;5531;42.570;23.676;2022-09-09T10:51:53;2.20;;;2.00;;
10957;SDS011;5531;42.570;23.676;2022-09-09T10:54:36;2.80;;;1.90;;
10957;SDS011;5531;42.570;23.676;2022-09-09T10:57:16;2.20;;;2.00;;
10957;SDS011;5531;42.570;23.676;2022-09-09T10:59:57;1.90;;;1.77;;
10957;SDS011;5531;42.570;23.676;2022-09-09T11:02:31;2.30;;;2.10;;
10957;SDS011;5531;42.570;23.676;2022-09-09T11:05:03;2.22;;;2.03;;
10957;SDS011;5531;42.570;23.676;2022-09-09T11:07:36;2.30;;;2.10;;
10957;SDS011;5531;42.570;23.676;2022-09-09T11:10:14;2.28;;;1.95;;
10957;SDS011;5531;42.570;23.676;2022-09-09T11:12:50;2.13;;;1.92;;
10957;SDS011;5531;42.570;23.676;2022-09-09T11:15:28;2.13;;;1.92;;
10957;SDS011;5531;42.570;23.676;2022-09-09T11:18:04;2.20;;;2.00;;
10957;SDS011;5531;42.570;23.676;2022-09-09T11:20:40;2.10;;;2.00;;
10957;SDS011;5531;42.570;23.676;2022-09-09T11:23:11;2.72;;;2.00;;
10957;SDS011;5531;42.570;23.676;2022-09-09T11:25:47;2.40;;;1.90;;
10957;SDS011;5531;42.570;23.676;2022-09-09T11:28:28;2.50;;;1.80;;
10957;SDS011;5531;42.570;23.676;2022-09-09T11:31:17;2.40;;;2.20;;
10957;SDS011;5531;42.570;23.676;2022-09-09T11:34:03;2.45;;;1.85;;
10957;SDS011;5531;42.570;23.676;2022-09-09T11:39:44;2.20;;;2.00;;
10957;SDS011;5531;42.570;23.676;2022-09-09T11:42:23;2.10;;;1.90;;
10957;SDS011;5531;42.570;23.676;2022-09-09T11:44:53;2.10;;;2.00;;
10957;SDS011;5531;42.570;23.676;2022-09-09T11:47:26;2.30;;;2.10;;
10957;SDS011;5531;42.570;23.676;2022-09-09T11:50:08;2.60;;;2.38;;
10957;SDS011;5531;42.570;23.676;2022-09-09T11:52:39;2.30;;;2.10;;
10957;SDS011;5531;42.570;23.676;2022-09-09T11:55:11;2.65;;;2.45;;
10957;SDS011;5531;42.570;23.676;2022-09-09T11:57:57;2.30;;;2.10;;
10957;SDS011;5531;42.570;23.676;2022-09-09T12:00:29;2.17;;;1.98;;
10957;SDS011;5531;42.570;23.676;2022-09-09T12:03:05;2.42;;;2.22;;
10957;SDS011;5531;42.570;23.676;2022-09-09T12:05:54;2.35;;;2.15;;
10957;SDS011;5531;42.570;23.676;2022-09-09T12:08:26;2.30;;;2.10;;
10957;SDS011;5531;42.570;23.676;2022-09-09T12:10:58;2.45;;;2.25;;
10957;SDS011;5531;42.570;23.676;2022-09-09T12:13:28;2.63;;;2.28;;
10957;SDS011;5531;42.570;23.676;2022-09-09T12:15:58;2.30;;;2.10;;
10957;SDS011;5531;42.570;23.676;2022-09-09T12:18:35;3.47;;;2.25;;
10957;SDS011;5531;42.570;23.676;2022-09-09T12:21:06;3.30;;;2.15;;
10957;SDS011;5531;42.570;23.676;2022-09-09T12:23:44;2.38;;;2.17;;
10957;SDS011;5531;42.570;23.676;2022-09-09T12:26:29;2.42;;;2.22;;
10957;SDS011;5531;42.570;23.676;2022-09-09T12:29:05;2.58;;;2.38;;
10957;SDS011;5531;42.570;23.676;2022-09-09T12:31:44;2.67;;;2.47;;
10957;SDS011;5531;42.570;23.676;2022-09-09T12:34:24;2.95;;;2.53;;
10957;SDS011;5531;42.570;23.676;2022-09-09T12:37:05;3.13;;;2.35;;
10957;SDS011;5531;42.570;23.676;2022-09-09T12:39:44;2.60;;;2.40;;
10957;SDS011;5531;42.570;23.676;2022-09-09T12:42:18;2.25;;;2.05;;
10957;SDS011;5531;42.570;23.676;2022-09-09T12:44:52;2.55;;;2.30;;
10957;SDS011;5531;42.570;23.676;2022-09-09T12:47:23;2.70;;;2.40;;
10957;SDS011;5531;42.570;23.676;2022-09-09T12:50:00;2.33;;;2.13;;
10957;SDS011;5531;42.570;23.676;2022-09-09T12:52:30;2.30;;;2.10;;
10957;SDS011;5531;42.570;23.676;2022-09-09T12:55:03;2.30;;;2.10;;
10957;SDS011;5531;42.570;23.676;2022-09-09T12:57:35;2.38;;;2.17;;
10957;SDS011;5531;42.570;23.676;2022-09-09T13:00:12;2.33;;;2.13;;
10957;SDS011;5531;42.570;23.676;2022-09-09T13:02:50;2.30;;;2.10;;
10957;SDS011;5531;42.570;23.676;2022-09-09T13:05:24;2.35;;;2.10;;
10957;SDS011;5531;42.570;23.676;2022-09-09T13:08:00;2.53;;;2.00;;
10957;SDS011;5531;42.570;23.676;2022-09-09T13:10:31;3.03;;;2.25;;
10957;SDS011;5531;42.570;23.676;2022-09-09T13:13:04;2.63;;;2.22;;
10957;SDS011;5531;42.570;23.676;2022-09-09T13:15:47;2.20;;;1.92;;
10957;SDS011;5531;42.570;23.676;2022-09-09T13:18:19;2.42;;;2.08;;
10957;SDS011;5531;42.570;23.676;2022-09-09T13:20:54;2.30;;;2.10;;
10957;SDS011;5531;42.570;23.676;2022-09-09T13:23:26;2.67;;;2.28;;
10957;SDS011;5531;42.570;23.676;2022-09-09T13:25:58;2.33;;;2.13;;
10957;SDS011;5531;42.570;23.676;2022-09-09T13:28:30;2.38;;;2.17;;
10957;SDS011;5531;42.570;23.676;2022-09-09T13:31:00;2.50;;;2.17;;
10957;SDS011;5531;42.570;23.676;2022-09-09T13:33:32;2.30;;;2.10;;
10957;SDS011;5531;42.570;23.676;2022-09-09T13:36:06;2.10;;;1.90;;
10957;SDS011;5531;42.570;23.676;2022-09-09T13:38:37;2.20;;;2.00;;
10957;SDS011;5531;42.570;23.676;2022-09-09T13:41:09;2.05;;;1.90;;
10957;SDS011;5531;42.570;23.676;2022-09-09T13:43:42;2.05;;;1.85;;
10957;SDS011;5531;42.570;23.676;2022-09-09T13:46:23;2.33;;;2.13;;
10957;SDS011;5531;42.570;23.676;2022-09-09T13:49:02;2.08;;;1.98;;
10957;SDS011;5531;42.570;23.676;2022-09-09T13:52:02;3.65;;;2.08;;
10957;SDS011;5531;42.570;23.676;2022-09-09T13:54:33;2.38;;;2.17;;
10957;SDS011;5531;42.570;23.676;2022-09-09T13:57:02;2.40;;;2.20;;
10957;SDS011;5531;42.570;23.676;2022-09-09T13:59:31;2.10;;;1.90;;
10957;SDS011;5531;42.570;23.676;2022-09-09T14:02:01;2.40;;;2.10;;
10957;SDS011;5531;42.570;23.676;2022-09-09T14:04:30;2.40;;;2.20;;
10957;SDS011;5531;42.570;23.676;2022-09-09T14:07:03;2.50;;;2.30;;
10957;SDS011;5531;42.570;23.676;2022-09-09T14:09:32;2.70;;;2.50;;
10957;SDS011;5531;42.570;23.676;2022-09-09T14:12:01;2.17;;;1.98;;
10957;SDS011;5531;42.570;23.676;2022-09-09T14:14:31;3.03;;;2.30;;
10957;SDS011;5531;42.570;23.676;2022-09-09T14:17:00;2.25;;;2.05;;
10957;SDS011;5531;42.570;23.676;2022-09-09T14:19:29;2.28;;;2.03;;
10957;SDS011;5531;42.570;23.676;2022-09-09T14:21:59;2.88;;;2.20;;
10957;SDS011;5531;42.570;23.676;2022-09-09T14:24:31;3.83;;;2.28;;
10957;SDS011;5531;42.570;23.676;2022-09-09T14:27:00;2.38;;;2.17;;
10957;SDS011;5531;42.570;23.676;2022-09-09T14:29:29;2.30;;;2.10;;
10957;SDS011;5531;42.570;23.676;2022-09-09T14:31:58;2.42;;;2.22;;
10957;SDS011;5531;42.570;23.676;2022-09-09T14:34:27;2.08;;;1.88;;
10957;SDS011;5531;42.570;23.676;2022-09-09T14:36:57;2.28;;;2.08;;
10957;SDS011;5531;42.570;23.676;2022-09-09T14:39:26;2.08;;;1.88;;
10957;SDS011;5531;42.570;23.676;2022-09-09T14:41:58;2.58;;;2.38;;
10957;SDS011;5531;42.570;23.676;2022-09-09T14:44:27;2.50;;;2.30;;
10957;SDS011;5531;42.570;23.676;2022-09-09T14:46:57;2.28;;;2.08;;
10957;SDS011;5531;42.570;23.676;2022-09-09T14:49:26;2.50;;;2.30;;
10957;SDS011;5531;42.570;23.676;2022-09-09T14:51:55;2.80;;;2.50;;
10957;SDS011;5531;42.570;23.676;2022-09-09T14:54:24;2.53;;;2.33;;
10957;SDS011;5531;42.570;23.676;2022-09-09T14:56:53;2.67;;;2.47;;
10957;SDS011;5531;42.570;23.676;2022-09-09T14:59:25;2.58;;;2.28;;
10957;SDS011;5531;42.570;23.676;2022-09-09T15:01:55;2.30;;;2.10;;
10957;SDS011;5531;42.570;23.676;2022-09-09T15:04:26;2.38;;;2.17;;
10957;SDS011;5531;42.570;23.676;2022-09-09T15:06:55;2.38;;;2.13;;
10957;SDS011;5531;42.570;23.676;2022-09-09T15:09:24;2.50;;;2.30;;
10957;SDS011;5531;42.570;23.676;2022-09-09T15:11:53;2.33;;;2.13;;
10957;SDS011;5531;42.570;23.676;2022-09-09T15:14:24;2.47;;;2.28;;
10957;SDS011;5531;42.570;23.676;2022-09-09T15:16:54;2.50;;;2.30;;
10957;SDS011;5531;42.570;23.676;2022-09-09T15:19:23;2.72;;;2.08;;
10957;SDS011;5531;42.570;23.676;2022-09-09T15:21:52;2.50;;;2.30;;
10957;SDS011;5531;42.570;23.676;2022-09-09T15:24:21;2.85;;;2.10;;
10957;SDS011;5531;42.570;23.676;2022-09-09T15:26:51;2.30;;;2.10;;
10957;SDS011;5531;42.570;23.676;2022-09-09T15:29:20;2.22;;;2.05;;
10957;SDS011;5531;42.570;23.676;2022-09-09T15:31:52;2.42;;;2.13;;
10957;SDS011;5531;42.570;23.676;2022-09-09T15:34:22;2.70;;;2.10;;
10957;SDS011;5531;42.570;23.676;2022-09-09T15:36:51;2.30;;;2.10;;
10957;SDS011;5531;42.570;23.676;2022-09-09T15:39:20;2.42;;;2.22;;